createdAt,value
2023-04-18T00:00:12.531Z,10.30
2023-04-18T00:00:24.758Z,10.40
2023-04-18T00:00:36.968Z,10.30
2023-04-18T00:00:49.878Z,10.30
2023-04-18T00:01:01.930Z,10.30
2023-04-18T00:01:14.786Z,10.30
2023-04-18T00:01:26.884Z,10.30
2023-04-18T00:01:39.284Z,10.30
2023-04-18T00:01:51.857Z,10.30
2023-04-18T00:02:03.817Z,10.40
2023-04-18T00:02:17.565Z,10.40
2023-04-18T00:02:29.831Z,10.30
2023-04-18T00:02:44.276Z,10.30
2023-04-18T00:02:56.594Z,10.30
2023-04-18T00:03:09.813Z,10.40
2023-04-18T00:03:22.164Z,10.40
2023-04-18T00:03:35.062Z,10.40
2023-04-18T00:03:47.508Z,10.40
2023-04-18T00:03:59.756Z,10.30
2023-04-18T00:04:12.215Z,10.40
2023-04-18T00:04:25.402Z,10.40
2023-04-18T00:04:37.702Z,10.30
2023-04-18T00:04:50.687Z,10.30
2023-04-18T00:05:04.219Z,10.30
2023-04-18T00:05:18.154Z,10.30
2023-04-18T00:05:30.194Z,10.30
2023-04-18T00:05:43.859Z,10.30
2023-04-18T00:05:56.196Z,10.30
2023-04-18T00:06:08.101Z,10.30
2023-04-18T00:06:22.262Z,10.30
2023-04-18T00:06:36.055Z,10.30
2023-04-18T00:06:49.704Z,10.30
2023-04-18T00:07:01.708Z,10.30
2023-04-18T00:07:17.178Z,10.30
2023-04-18T00:07:29.034Z,10.30
2023-04-18T00:07:41.321Z,10.30
2023-04-18T00:07:53.877Z,10.30
2023-04-18T00:08:05.684Z,10.30
2023-04-18T00:08:17.515Z,10.30
2023-04-18T00:08:29.395Z,10.30
2023-04-18T00:08:41.287Z,10.30
2023-04-18T00:08:53.063Z,10.30
2023-04-18T00:09:05.088Z,10.30
2023-04-18T00:09:17.167Z,10.30
2023-04-18T00:09:28.930Z,10.30
2023-04-18T00:09:41.506Z,10.30
2023-04-18T00:09:53.294Z,10.30
2023-04-18T00:10:05.829Z,10.30
2023-04-18T00:10:17.830Z,10.30
2023-04-18T00:10:29.596Z,10.30
2023-04-18T00:10:41.624Z,10.30
2023-04-18T00:10:54.190Z,10.30
2023-04-18T00:11:06.049Z,10.30
2023-04-18T00:11:17.918Z,10.30
2023-04-18T00:11:30.484Z,10.30
2023-04-18T00:11:42.372Z,10.30
2023-04-18T00:11:54.516Z,10.30
2023-04-18T00:12:06.707Z,10.30
2023-04-18T00:12:18.991Z,10.30
2023-04-18T00:12:32.004Z,10.30
2023-04-18T00:12:43.930Z,10.30
2023-04-18T00:12:55.743Z,10.30
2023-04-18T00:13:07.536Z,10.30
2023-04-18T00:13:19.385Z,10.30
2023-04-18T00:13:31.298Z,10.30
2023-04-18T00:13:43.449Z,10.30
2023-04-18T00:13:55.476Z,10.30
2023-04-18T00:14:07.290Z,10.30
2023-04-18T00:14:20.834Z,10.30
2023-04-18T00:14:34.842Z,10.30
2023-04-18T00:14:46.706Z,10.30
2023-04-18T00:14:58.942Z,10.30
2023-04-18T00:15:11.712Z,10.30
2023-04-18T00:15:24.121Z,10.30
2023-04-18T00:15:35.900Z,10.30
2023-04-18T00:15:48.035Z,10.30
2023-04-18T00:15:59.972Z,10.30
2023-04-18T00:16:13.497Z,10.30
2023-04-18T00:16:25.392Z,10.30
2023-04-18T00:16:49.961Z,10.30
2023-04-18T00:17:04.638Z,10.30
2023-04-18T00:17:16.719Z,10.30
2023-04-18T00:17:28.678Z,10.30
2023-04-18T00:17:40.542Z,10.30
2023-04-18T00:17:52.475Z,10.30
2023-04-18T00:18:06.173Z,10.30
2023-04-18T00:18:18.097Z,10.30
2023-04-18T00:18:30.088Z,10.30
2023-04-18T00:18:42.066Z,10.30
2023-04-18T00:18:54.269Z,10.30
2023-04-18T00:19:06.520Z,10.30
2023-04-18T00:19:18.917Z,10.30
2023-04-18T00:19:30.674Z,10.30
2023-04-18T00:19:43.474Z,10.20
2023-04-18T00:19:56.572Z,10.20
2023-04-18T00:20:11.144Z,10.20
2023-04-18T00:20:26.632Z,10.20
2023-04-18T00:20:39.313Z,10.20
2023-04-18T00:20:51.164Z,10.20
2023-04-18T00:21:03.540Z,10.10
2023-04-18T00:21:16.882Z,10.10
2023-04-18T00:21:30.159Z,10.10
2023-04-18T00:21:44.794Z,10.10
2023-04-18T00:21:58.111Z,10.10
2023-04-18T00:22:13.325Z,10.10
2023-04-18T00:22:25.405Z,10.10
2023-04-18T00:22:42.566Z,10.10
2023-04-18T00:22:55.099Z,10.10
2023-04-18T00:23:07.895Z,10.10
2023-04-18T00:23:22.283Z,10.10
2023-04-18T00:23:35.269Z,10.10
2023-04-18T00:23:47.138Z,10.10
2023-04-18T00:23:58.967Z,10.10
2023-04-18T00:24:11.084Z,10.10
2023-04-18T00:24:22.882Z,10.10
2023-04-18T00:24:34.651Z,10.10
2023-04-18T00:24:46.684Z,10.10
2023-04-18T00:24:58.622Z,10.10
2023-04-18T00:25:10.648Z,10.10
2023-04-18T00:25:22.379Z,10.10
2023-04-18T00:25:34.189Z,10.10
2023-04-18T00:25:46.102Z,10.10
2023-04-18T00:25:58.010Z,10.10
2023-04-18T00:26:09.884Z,10.10
2023-04-18T00:26:21.738Z,10.10
2023-04-18T00:26:33.493Z,10.10
2023-04-18T00:26:45.354Z,10.10
2023-04-18T00:26:57.368Z,10.10
2023-04-18T00:27:09.110Z,10.10
2023-04-18T00:27:21.065Z,10.10
2023-04-18T00:27:32.834Z,10.10
2023-04-18T00:27:44.620Z,10.10
2023-04-18T00:27:56.610Z,10.10
2023-04-18T00:28:08.441Z,10.10
2023-04-18T00:28:20.319Z,10.10
2023-04-18T00:28:32.263Z,10.10
2023-04-18T00:28:44.185Z,10.10
2023-04-18T00:28:56.058Z,10.10
2023-04-18T00:29:07.889Z,10.10
2023-04-18T00:29:19.719Z,10.10
2023-04-18T00:29:34.534Z,10.10
2023-04-18T00:29:47.104Z,10.10
2023-04-18T00:29:58.879Z,10.10
2023-04-18T00:30:11.075Z,10.10
2023-04-18T00:30:22.895Z,10.10
2023-04-18T00:30:34.732Z,10.10
2023-04-18T00:30:47.105Z,10.10
2023-04-18T00:30:58.849Z,10.10
2023-04-18T00:31:10.635Z,10.10
2023-04-18T00:31:22.538Z,10.10
2023-04-18T00:31:34.330Z,10.10
2023-04-18T00:31:46.071Z,10.10
2023-04-18T00:31:58.038Z,10.10
2023-04-18T00:32:09.849Z,10.10
2023-04-18T00:32:21.632Z,10.10
2023-04-18T00:32:33.846Z,10.10
2023-04-18T00:32:45.735Z,10.10
2023-04-18T00:32:57.597Z,10.10
2023-04-18T00:33:09.440Z,10.10
2023-04-18T00:33:21.258Z,10.10
2023-04-18T00:33:34.282Z,10.10
2023-04-18T00:33:46.249Z,10.10
2023-04-18T00:33:57.976Z,10.00
2023-04-18T00:34:09.748Z,10.00
2023-04-18T00:34:21.523Z,10.00
2023-04-18T00:34:33.316Z,10.00
2023-04-18T00:34:45.533Z,10.00
2023-04-18T00:34:57.374Z,10.00
2023-04-18T00:35:09.216Z,10.10
2023-04-18T00:35:22.555Z,10.00
2023-04-18T00:35:34.722Z,10.00
2023-04-18T00:35:46.645Z,10.00
2023-04-18T00:35:58.618Z,10.00
2023-04-18T00:36:10.525Z,10.00
2023-04-18T00:36:22.410Z,10.00
2023-04-18T00:36:34.246Z,10.10
2023-04-18T00:36:45.983Z,10.00
2023-04-18T00:36:57.745Z,10.00
2023-04-18T00:37:09.484Z,10.00
2023-04-18T00:37:21.190Z,10.00
2023-04-18T00:37:32.953Z,10.00
2023-04-18T00:37:44.749Z,10.10
2023-04-18T00:37:56.947Z,10.10
2023-04-18T00:38:08.717Z,10.10
2023-04-18T00:38:20.639Z,10.00
2023-04-18T00:38:32.719Z,10.10
2023-04-18T00:38:44.491Z,10.10
2023-04-18T00:38:56.488Z,10.10
2023-04-18T00:39:08.271Z,10.00
2023-04-18T00:39:20.228Z,10.10
2023-04-18T00:39:31.989Z,10.00
2023-04-18T00:39:43.869Z,10.10
2023-04-18T00:39:55.640Z,10.10
2023-04-18T00:40:08.000Z,10.10
2023-04-18T00:40:19.903Z,10.10
2023-04-18T00:40:31.723Z,10.00
2023-04-18T00:40:43.730Z,10.00
2023-04-18T00:40:55.769Z,10.00
2023-04-18T00:41:07.710Z,10.00
2023-04-18T00:41:20.278Z,10.00
2023-04-18T00:41:32.031Z,10.00
2023-04-18T00:41:43.754Z,10.10
2023-04-18T00:41:55.764Z,10.00
2023-04-18T00:42:07.570Z,10.00
2023-04-18T00:42:21.533Z,10.00
2023-04-18T00:42:33.575Z,10.00
2023-04-18T00:42:45.405Z,10.00
2023-04-18T00:42:57.232Z,10.00
2023-04-18T00:43:09.127Z,10.00
2023-04-18T00:43:23.471Z,10.00
2023-04-18T00:43:35.516Z,10.00
2023-04-18T00:43:47.378Z,10.00
2023-04-18T00:43:59.177Z,10.00
2023-04-18T00:44:11.144Z,10.00
2023-04-18T00:44:23.107Z,10.00
2023-04-18T00:44:34.841Z,10.00
2023-04-18T00:44:46.598Z,10.00
2023-04-18T00:44:58.399Z,10.00
2023-04-18T00:45:10.567Z,10.00
2023-04-18T00:45:22.438Z,10.00
2023-04-18T00:45:34.326Z,10.00
2023-04-18T00:45:46.089Z,10.00
2023-04-18T00:46:01.414Z,10.00
2023-04-18T00:46:13.494Z,10.00
2023-04-18T00:46:25.570Z,10.00
2023-04-18T00:46:37.478Z,10.00
2023-04-18T00:46:49.395Z,10.00
2023-04-18T00:47:01.183Z,10.00
2023-04-18T00:47:13.189Z,10.00
2023-04-18T00:47:25.699Z,10.00
2023-04-18T00:47:37.580Z,10.00
2023-04-18T00:47:49.402Z,10.00
2023-04-18T00:48:01.509Z,10.00
2023-04-18T00:48:13.335Z,10.00
2023-04-18T00:48:25.145Z,10.00
2023-04-18T00:48:39.165Z,10.00
2023-04-18T00:48:51.012Z,10.00
2023-04-18T00:49:02.793Z,10.00
2023-04-18T00:49:14.608Z,10.00
2023-04-18T00:49:26.433Z,10.00
2023-04-18T00:49:38.167Z,10.00
2023-04-18T00:49:49.931Z,10.00
2023-04-18T00:50:01.711Z,10.00
2023-04-18T00:50:13.561Z,10.00
2023-04-18T00:50:25.382Z,10.00
2023-04-18T00:50:37.455Z,10.00
2023-04-18T00:50:49.383Z,10.00
2023-04-18T00:51:01.125Z,10.00
2023-04-18T00:51:13.017Z,10.00
2023-04-18T00:51:24.752Z,10.00
2023-04-18T00:51:36.549Z,10.00
2023-04-18T00:51:48.626Z,10.00
2023-04-18T00:52:00.487Z,10.00
2023-04-18T00:52:12.483Z,10.00
2023-04-18T00:52:26.214Z,10.00
2023-04-18T00:52:37.998Z,10.00
2023-04-18T00:52:49.911Z,10.00
2023-04-18T00:53:01.671Z,10.00
2023-04-18T00:53:13.464Z,10.00
2023-04-18T00:53:25.280Z,10.00
2023-04-18T00:53:37.093Z,10.00
2023-04-18T00:53:48.860Z,10.00
2023-04-18T00:54:01.106Z,9.90
2023-04-18T00:54:13.683Z,10.00
2023-04-18T00:54:25.879Z,9.90
2023-04-18T00:54:37.988Z,10.00
2023-04-18T00:54:49.802Z,10.00
2023-04-18T00:55:06.686Z,10.00
2023-04-18T00:55:18.676Z,10.00
2023-04-18T00:55:30.726Z,10.00
2023-04-18T00:55:42.543Z,9.90
2023-04-18T00:55:54.485Z,9.90
2023-04-18T00:56:06.908Z,10.00
2023-04-18T00:56:18.717Z,10.00
2023-04-18T00:56:30.694Z,10.00
2023-04-18T00:56:42.458Z,10.00
2023-04-18T00:56:54.181Z,10.00
2023-04-18T00:57:05.898Z,10.00
2023-04-18T00:57:17.725Z,10.00
2023-04-18T00:57:29.766Z,10.00
2023-04-18T00:57:42.007Z,10.00
2023-04-18T00:57:53.749Z,10.00
2023-04-18T00:58:06.468Z,10.00
2023-04-18T00:58:18.250Z,10.00
2023-04-18T00:58:30.024Z,10.00
2023-04-18T00:58:41.822Z,9.90
2023-04-18T00:58:53.787Z,9.90
2023-04-18T00:59:06.671Z,9.90
2023-04-18T00:59:18.565Z,10.00
2023-04-18T00:59:30.476Z,10.00
2023-04-18T00:59:42.502Z,9.90
2023-04-18T00:59:54.333Z,9.90
2023-04-18T01:00:15.600Z,10.00
2023-04-18T01:00:27.533Z,10.00
2023-04-18T01:00:39.383Z,10.00
2023-04-18T01:00:52.128Z,9.90
2023-04-18T01:01:03.931Z,10.00
2023-04-18T01:01:16.154Z,10.00
2023-04-18T01:01:28.082Z,9.90
2023-04-18T01:01:40.308Z,10.00
2023-04-18T01:01:52.282Z,10.00
2023-04-18T01:02:04.266Z,9.90
2023-04-18T01:02:17.482Z,9.90
2023-04-18T01:02:30.724Z,9.90
2023-04-18T01:02:42.832Z,9.90
2023-04-18T01:02:55.869Z,9.90
2023-04-18T01:03:08.601Z,9.90
2023-04-18T01:03:22.932Z,9.90
2023-04-18T01:03:35.266Z,9.90
2023-04-18T01:03:47.487Z,9.80
2023-04-18T01:03:59.959Z,9.80
2023-04-18T01:04:12.425Z,9.90
2023-04-18T01:04:24.583Z,9.90
2023-04-18T01:04:37.368Z,9.80
2023-04-18T01:04:49.237Z,9.90
2023-04-18T01:05:01.335Z,9.80
2023-04-18T01:05:13.239Z,9.90
2023-04-18T01:05:25.272Z,9.80
2023-04-18T01:05:37.010Z,9.90
2023-04-18T01:05:48.811Z,9.90
2023-04-18T01:06:01.206Z,9.90
2023-04-18T01:06:12.943Z,9.80
2023-04-18T01:06:25.341Z,9.80
2023-04-18T01:06:37.237Z,9.80
2023-04-18T01:06:49.050Z,9.90
2023-04-18T01:07:03.591Z,9.90
2023-04-18T01:07:15.395Z,9.80
2023-04-18T01:07:27.151Z,9.80
2023-04-18T01:07:41.696Z,9.80
2023-04-18T01:07:58.724Z,9.80
2023-04-18T01:08:11.141Z,9.80
2023-04-18T01:08:23.310Z,9.80
2023-04-18T01:08:35.280Z,9.80
2023-04-18T01:08:47.115Z,9.90
2023-04-18T01:08:58.869Z,9.90
2023-04-18T01:09:11.040Z,9.80
2023-04-18T01:09:23.092Z,9.80
2023-04-18T01:09:34.830Z,9.80
2023-04-18T01:09:46.562Z,9.90
2023-04-18T01:09:58.756Z,9.90
2023-04-18T01:10:10.601Z,9.80
2023-04-18T01:10:22.490Z,9.90
2023-04-18T01:10:34.269Z,9.80
2023-04-18T01:10:46.022Z,9.90
2023-04-18T01:10:57.832Z,9.80
2023-04-18T01:11:09.629Z,9.80
2023-04-18T01:11:21.362Z,9.80
2023-04-18T01:11:33.306Z,9.70
2023-04-18T01:11:45.127Z,9.70
2023-04-18T01:11:57.058Z,9.70
2023-04-18T01:12:08.914Z,9.70
2023-04-18T01:12:20.625Z,9.80
2023-04-18T01:12:32.428Z,9.80
2023-04-18T01:12:44.182Z,9.80
2023-04-18T01:13:28.503Z,9.80
2023-04-18T01:13:40.417Z,9.80
2023-04-18T01:14:05.666Z,9.70
2023-04-18T01:14:18.797Z,9.70
2023-04-18T01:14:30.886Z,9.70
2023-04-18T01:14:43.064Z,9.70
2023-04-18T01:14:54.864Z,9.70
2023-04-18T01:15:07.775Z,9.70
2023-04-18T01:15:19.516Z,9.70
2023-04-18T01:15:31.408Z,9.70
2023-04-18T01:15:44.142Z,9.70
2023-04-18T01:15:56.015Z,9.70
2023-04-18T01:16:07.893Z,9.70
2023-04-18T01:16:19.698Z,9.70
2023-04-18T01:16:34.675Z,9.70
2023-04-18T01:16:46.492Z,9.70
2023-04-18T01:16:58.770Z,9.70
2023-04-18T01:17:10.980Z,9.70
2023-04-18T01:17:23.427Z,9.60
2023-04-18T01:17:35.727Z,9.70
2023-04-18T01:17:47.600Z,9.70
2023-04-18T01:18:00.157Z,9.70
2023-04-18T01:18:12.209Z,9.60
2023-04-18T01:18:24.348Z,9.60
2023-04-18T01:18:37.120Z,9.70
2023-04-18T01:18:48.931Z,9.70
2023-04-18T01:19:01.487Z,9.70
2023-04-18T01:19:14.442Z,9.70
2023-04-18T01:19:26.379Z,9.70
2023-04-18T01:19:38.280Z,9.60
2023-04-18T01:19:51.089Z,9.60
2023-04-18T01:20:04.967Z,9.70
2023-04-18T01:20:17.047Z,9.60
2023-04-18T01:20:28.893Z,9.70
2023-04-18T01:20:42.631Z,9.60
2023-04-18T01:20:56.960Z,9.60
2023-04-18T01:21:08.785Z,9.60
2023-04-18T01:21:21.966Z,9.60
2023-04-18T01:21:37.442Z,9.60
2023-04-18T01:21:49.649Z,9.60
2023-04-18T01:22:01.538Z,9.60
2023-04-18T01:22:13.977Z,9.60
2023-04-18T01:22:25.735Z,9.60
2023-04-18T01:22:37.614Z,9.60
2023-04-18T01:22:49.345Z,9.60
2023-04-18T01:23:01.134Z,9.60
2023-04-18T01:23:13.490Z,9.60
2023-04-18T01:23:25.822Z,9.60
2023-04-18T01:23:37.519Z,9.60
2023-04-18T01:23:49.356Z,9.60
2023-04-18T01:24:09.113Z,9.60
2023-04-18T01:24:21.842Z,9.50
2023-04-18T01:24:33.650Z,9.50
2023-04-18T01:24:45.578Z,9.50
2023-04-18T01:24:57.597Z,9.50
2023-04-18T01:25:10.070Z,9.50
2023-04-18T01:25:21.894Z,9.50
2023-04-18T01:25:34.452Z,9.50
2023-04-18T01:25:46.463Z,9.50
2023-04-18T01:25:58.293Z,9.50
2023-04-18T01:26:10.026Z,9.50
2023-04-18T01:26:21.746Z,9.50
2023-04-18T01:26:33.570Z,9.50
2023-04-18T01:26:47.743Z,9.50
2023-04-18T01:26:59.704Z,9.50
2023-04-18T01:27:13.524Z,9.50
2023-04-18T01:27:25.342Z,9.50
2023-04-18T01:27:37.181Z,9.50
2023-04-18T01:27:48.966Z,9.50
2023-04-18T01:28:00.894Z,9.50
2023-04-18T01:28:14.028Z,9.50
2023-04-18T01:28:27.819Z,9.50
2023-04-18T01:28:39.692Z,9.50
2023-04-18T01:28:51.613Z,9.50
2023-04-18T01:29:03.518Z,9.50
2023-04-18T01:29:15.535Z,9.50
2023-04-18T01:29:27.414Z,9.50
2023-04-18T01:29:39.494Z,9.50
2023-04-18T01:29:51.297Z,9.50
2023-04-18T01:30:03.141Z,9.50
2023-04-18T01:30:14.937Z,9.60
2023-04-18T01:30:26.730Z,9.50
2023-04-18T01:30:38.549Z,9.50
2023-04-18T01:30:50.395Z,9.60
2023-04-18T01:31:02.200Z,9.60
2023-04-18T01:31:14.090Z,9.50
2023-04-18T01:31:26.184Z,9.50
2023-04-18T01:31:38.132Z,9.50
2023-04-18T01:31:50.047Z,9.50
2023-04-18T01:32:02.620Z,9.60
2023-04-18T01:32:15.017Z,9.60
2023-04-18T01:32:26.862Z,9.60
2023-04-18T01:32:38.691Z,9.60
2023-04-18T01:32:50.561Z,9.60
2023-04-18T01:33:05.772Z,9.60
2023-04-18T01:33:17.533Z,9.60
2023-04-18T01:33:29.539Z,9.60
2023-04-18T01:33:41.494Z,9.60
2023-04-18T01:33:53.344Z,9.60
2023-04-18T01:34:05.535Z,9.60
2023-04-18T01:34:19.894Z,9.60
2023-04-18T01:34:31.742Z,9.60
2023-04-18T01:34:43.573Z,9.60
2023-04-18T01:34:55.410Z,9.60
2023-04-18T01:35:07.678Z,9.60
2023-04-18T01:35:19.524Z,9.60
2023-04-18T01:35:31.875Z,9.60
2023-04-18T01:35:43.580Z,9.60
2023-04-18T01:35:55.445Z,9.60
2023-04-18T01:36:07.431Z,9.60
2023-04-18T01:36:19.194Z,9.60
2023-04-18T01:36:31.893Z,9.60
2023-04-18T01:36:43.768Z,9.60
2023-04-18T01:36:55.778Z,9.60
2023-04-18T01:37:07.614Z,9.60
2023-04-18T01:37:19.390Z,9.60
2023-04-18T01:37:31.934Z,9.60
2023-04-18T01:37:44.397Z,9.60
2023-04-18T01:37:56.438Z,9.60
2023-04-18T01:38:08.329Z,9.60
2023-04-18T01:38:20.035Z,9.60
2023-04-18T01:38:33.069Z,9.60
2023-04-18T01:38:44.808Z,9.50
2023-04-18T01:38:57.118Z,9.60
2023-04-18T01:39:09.516Z,9.50
2023-04-18T01:39:21.428Z,9.50
2023-04-18T01:39:33.217Z,9.50
2023-04-18T01:39:45.229Z,9.50
2023-04-18T01:39:58.509Z,9.50
2023-04-18T01:40:11.129Z,9.50
2023-04-18T01:40:23.473Z,9.50
2023-04-18T01:40:35.408Z,9.60
2023-04-18T01:40:47.534Z,9.50
2023-04-18T01:40:59.284Z,9.50
2023-04-18T01:41:11.076Z,9.50
2023-04-18T01:41:22.932Z,9.50
2023-04-18T01:41:34.857Z,9.50
2023-04-18T01:41:46.726Z,9.60
2023-04-18T01:41:58.495Z,9.50
2023-04-18T01:42:10.289Z,9.50
2023-04-18T01:42:22.094Z,9.50
2023-04-18T01:42:34.019Z,9.60
2023-04-18T01:42:45.882Z,9.60
2023-04-18T01:42:57.783Z,9.60
2023-04-18T01:43:09.636Z,9.60
2023-04-18T01:43:21.354Z,9.50
2023-04-18T01:43:33.126Z,9.50
2023-04-18T01:43:45.017Z,9.60
2023-04-18T01:43:56.788Z,9.60
2023-04-18T01:44:08.647Z,9.50
2023-04-18T01:44:20.446Z,9.60
2023-04-18T01:44:32.224Z,9.60
2023-04-18T01:44:44.099Z,9.50
2023-04-18T01:44:55.936Z,9.50
2023-04-18T01:45:08.078Z,9.50
2023-04-18T01:45:20.119Z,9.50
2023-04-18T01:45:31.850Z,9.50
2023-04-18T01:45:43.589Z,9.50
2023-04-18T01:45:55.595Z,9.60
2023-04-18T01:46:07.427Z,9.60
2023-04-18T01:46:19.652Z,9.60
2023-04-18T01:46:31.865Z,9.50
2023-04-18T01:46:43.755Z,9.50
2023-04-18T01:46:55.895Z,9.60
2023-04-18T01:47:07.747Z,9.50
2023-04-18T01:47:19.563Z,9.50
2023-04-18T01:47:31.417Z,9.50
2023-04-18T01:47:43.618Z,9.50
2023-04-18T01:47:55.593Z,9.50
2023-04-18T01:48:07.524Z,9.50
2023-04-18T01:48:19.295Z,9.50
2023-04-18T01:48:31.106Z,9.50
2023-04-18T01:48:43.154Z,9.50
2023-04-18T01:48:55.750Z,9.50
2023-04-18T01:49:08.141Z,9.50
2023-04-18T01:49:19.925Z,9.60
2023-04-18T01:49:31.634Z,9.50
2023-04-18T01:49:48.000Z,9.50
2023-04-18T01:49:59.764Z,9.60
2023-04-18T01:50:11.950Z,9.60
2023-04-18T01:50:23.880Z,9.60
2023-04-18T01:50:35.760Z,9.60
2023-04-18T01:50:47.525Z,9.60
2023-04-18T01:50:59.255Z,9.60
2023-04-18T01:51:11.190Z,9.60
2023-04-18T01:51:23.063Z,9.60
2023-04-18T01:51:34.870Z,9.60
2023-04-18T01:51:46.644Z,9.60
2023-04-18T01:51:58.457Z,9.60
2023-04-18T01:52:10.298Z,9.60
2023-04-18T01:52:22.003Z,9.60
2023-04-18T01:52:33.933Z,9.60
2023-04-18T01:52:45.988Z,9.60
2023-04-18T01:52:57.828Z,9.60
2023-04-18T01:53:09.554Z,9.60
2023-04-18T01:53:21.953Z,9.60
2023-04-18T01:53:33.739Z,9.60
2023-04-18T01:53:45.539Z,9.60
2023-04-18T01:53:57.325Z,9.60
2023-04-18T01:54:09.106Z,9.60
2023-04-18T01:54:21.187Z,9.60
2023-04-18T01:54:33.027Z,9.60
2023-04-18T01:54:44.925Z,9.50
2023-04-18T01:54:56.860Z,9.50
2023-04-18T01:55:09.155Z,9.60
2023-04-18T01:55:20.912Z,9.60
2023-04-18T01:55:32.668Z,9.50
2023-04-18T01:55:44.399Z,9.60
2023-04-18T01:55:58.509Z,9.60
2023-04-18T01:56:10.642Z,9.50
2023-04-18T01:56:22.686Z,9.60
2023-04-18T01:56:34.478Z,9.60
2023-04-18T01:56:46.338Z,9.60
2023-04-18T01:56:58.125Z,9.60
2023-04-18T01:57:09.949Z,9.60
2023-04-18T01:57:21.669Z,9.60
2023-04-18T01:57:36.772Z,9.60
2023-04-18T01:57:50.838Z,9.60
2023-04-18T01:58:02.573Z,9.60
2023-04-18T01:58:15.749Z,9.60
2023-04-18T01:58:27.503Z,9.60
2023-04-18T01:58:39.332Z,9.60
2023-04-18T01:58:51.073Z,9.60
2023-04-18T01:59:02.984Z,9.60
2023-04-18T01:59:14.867Z,9.60
2023-04-18T01:59:26.630Z,9.60
2023-04-18T01:59:38.409Z,9.60
2023-04-18T01:59:50.179Z,9.50
2023-04-18T02:00:02.313Z,9.60
2023-04-18T02:00:14.358Z,9.50
2023-04-18T02:00:26.344Z,9.50
2023-04-18T02:00:38.154Z,9.60
2023-04-18T02:00:53.174Z,9.60
2023-04-18T02:01:05.250Z,9.50
2023-04-18T02:01:17.166Z,9.50
2023-04-18T02:01:29.004Z,9.60
2023-04-18T02:01:41.017Z,9.60
2023-04-18T02:01:52.964Z,9.50
2023-04-18T02:02:04.891Z,9.50
2023-04-18T02:02:16.805Z,9.50
2023-04-18T02:02:29.267Z,9.50
2023-04-18T02:02:41.447Z,9.60
2023-04-18T02:02:53.602Z,9.50
2023-04-18T02:03:06.233Z,9.50
2023-04-18T02:03:18.475Z,9.50
2023-04-18T02:03:30.487Z,9.50
2023-04-18T02:03:42.764Z,9.50
2023-04-18T02:03:55.009Z,9.50
2023-04-18T02:04:07.121Z,9.50
2023-04-18T02:04:19.131Z,9.50
2023-04-18T02:04:31.026Z,9.50
2023-04-18T02:04:43.012Z,9.40
2023-04-18T02:04:54.792Z,9.50
2023-04-18T02:05:07.185Z,9.50
2023-04-18T02:05:19.071Z,9.50
2023-04-18T02:05:30.892Z,9.40
2023-04-18T02:05:42.656Z,9.40
2023-04-18T02:05:54.416Z,9.40
2023-04-18T02:06:06.671Z,9.40
2023-04-18T02:06:18.472Z,9.40
2023-04-18T02:06:30.822Z,9.40
2023-04-18T02:06:42.628Z,9.40
2023-04-18T02:06:54.469Z,9.40
2023-04-18T02:07:06.279Z,9.40
2023-04-18T02:07:18.031Z,9.40
2023-04-18T02:07:29.889Z,9.40
2023-04-18T02:07:42.784Z,9.40
2023-04-18T02:07:54.581Z,9.40
2023-04-18T02:08:06.341Z,9.40
2023-04-18T02:08:18.121Z,9.40
2023-04-18T02:08:31.025Z,9.40
2023-04-18T02:08:42.830Z,9.40
2023-04-18T02:08:54.686Z,9.40
2023-04-18T02:09:06.923Z,9.40
2023-04-18T02:09:18.697Z,9.40
2023-04-18T02:09:31.035Z,9.40
2023-04-18T02:09:42.782Z,9.40
2023-04-18T02:09:54.611Z,9.40
2023-04-18T02:10:06.996Z,9.40
2023-04-18T02:10:19.289Z,9.40
2023-04-18T02:10:31.100Z,9.40
2023-04-18T02:10:42.965Z,9.40
2023-04-18T02:10:54.757Z,9.40
2023-04-18T02:11:06.537Z,9.40
2023-04-18T02:11:18.409Z,9.40
2023-04-18T02:11:30.709Z,9.40
2023-04-18T02:11:43.091Z,9.40
2023-04-18T02:11:59.556Z,9.50
2023-04-18T02:12:12.654Z,9.40
2023-04-18T02:12:24.531Z,9.40
2023-04-18T02:12:36.243Z,9.40
2023-04-18T02:12:48.057Z,9.50
2023-04-18T02:12:59.835Z,9.40
2023-04-18T02:13:11.672Z,9.50
2023-04-18T02:13:23.531Z,9.50
2023-04-18T02:13:35.297Z,9.50
2023-04-18T02:13:47.113Z,9.50
2023-04-18T02:13:59.750Z,9.50
2023-04-18T02:14:11.941Z,9.50
2023-04-18T02:14:24.005Z,9.50
2023-04-18T02:14:36.258Z,9.50
2023-04-18T02:14:51.514Z,9.40
2023-04-18T02:15:03.774Z,9.40
2023-04-18T02:15:15.689Z,9.50
2023-04-18T02:15:27.578Z,9.50
2023-04-18T02:15:39.352Z,9.40
2023-04-18T02:15:51.767Z,9.40
2023-04-18T02:16:03.630Z,9.50
2023-04-18T02:16:16.405Z,9.40
2023-04-18T02:16:28.252Z,9.40
2023-04-18T02:16:40.030Z,9.40
2023-04-18T02:16:51.836Z,9.40
2023-04-18T02:17:03.627Z,9.40
2023-04-18T02:17:15.476Z,9.40
2023-04-18T02:17:27.782Z,9.40
2023-04-18T02:17:39.632Z,9.40
2023-04-18T02:17:51.453Z,9.40
2023-04-18T02:18:03.427Z,9.40
2023-04-18T02:18:15.978Z,9.40
2023-04-18T02:18:28.053Z,9.40
2023-04-18T02:18:40.255Z,9.40
2023-04-18T02:18:52.572Z,9.40
2023-04-18T02:19:04.897Z,9.40
2023-04-18T02:19:16.797Z,9.40
2023-04-18T02:19:29.760Z,9.40
2023-04-18T02:19:41.792Z,9.40
2023-04-18T02:19:53.541Z,9.40
2023-04-18T02:20:08.417Z,9.40
2023-04-18T02:20:20.246Z,9.40
2023-04-18T02:20:33.610Z,9.40
2023-04-18T02:20:45.719Z,9.40
2023-04-18T02:20:57.522Z,9.40
2023-04-18T02:21:11.147Z,9.40
2023-04-18T02:21:23.289Z,9.40
2023-04-18T02:21:35.202Z,9.40
2023-04-18T02:21:46.971Z,9.40
2023-04-18T02:22:00.758Z,9.40
2023-04-18T02:22:12.556Z,9.30
2023-04-18T02:22:24.323Z,9.30
2023-04-18T02:22:37.807Z,9.30
2023-04-18T02:22:49.621Z,9.30
2023-04-18T02:23:01.366Z,9.20
2023-04-18T02:23:13.385Z,9.30
2023-04-18T02:23:25.261Z,9.20
2023-04-18T02:23:37.035Z,9.20
2023-04-18T02:23:49.008Z,9.20
2023-04-18T02:24:00.697Z,9.20
2023-04-18T02:24:12.569Z,9.20
2023-04-18T02:24:24.642Z,9.20
2023-04-18T02:24:36.424Z,9.20
2023-04-18T02:24:48.397Z,9.20
2023-04-18T02:25:00.415Z,9.20
2023-04-18T02:25:12.241Z,9.20
2023-04-18T02:25:26.878Z,9.20
2023-04-18T02:25:38.676Z,9.20
2023-04-18T02:25:50.885Z,9.20
2023-04-18T02:26:02.634Z,9.20
2023-04-18T02:26:14.558Z,9.20
2023-04-18T02:26:26.393Z,9.20
2023-04-18T02:26:38.173Z,9.20
2023-04-18T02:26:50.290Z,9.20
2023-04-18T02:27:02.040Z,9.20
2023-04-18T02:27:13.864Z,9.20
2023-04-18T02:27:25.873Z,9.20
2023-04-18T02:27:37.697Z,9.20
2023-04-18T02:27:50.024Z,9.20
2023-04-18T02:28:01.798Z,9.20
2023-04-18T02:28:13.690Z,9.20
2023-04-18T02:28:26.039Z,9.20
2023-04-18T02:28:39.279Z,9.10
2023-04-18T02:28:51.123Z,9.20
2023-04-18T02:29:03.023Z,9.10
2023-04-18T02:29:14.961Z,9.20
2023-04-18T02:29:26.775Z,9.20
2023-04-18T02:29:38.595Z,9.20
2023-04-18T02:29:50.689Z,9.20
2023-04-18T02:30:02.729Z,9.20
2023-04-18T02:30:14.655Z,9.20
2023-04-18T02:30:26.530Z,9.20
2023-04-18T02:30:38.311Z,9.20
2023-04-18T02:30:50.070Z,9.20
2023-04-18T02:31:01.985Z,9.20
2023-04-18T02:31:15.163Z,9.20
2023-04-18T02:31:27.256Z,9.20
2023-04-18T02:31:40.006Z,9.20
2023-04-18T02:31:51.806Z,9.20
2023-04-18T02:32:03.704Z,9.20
2023-04-18T02:32:15.594Z,9.20
2023-04-18T02:32:27.410Z,9.20
2023-04-18T02:32:39.317Z,9.20
2023-04-18T02:32:54.488Z,9.20
2023-04-18T02:33:06.576Z,9.20
2023-04-18T02:33:18.311Z,9.20
2023-04-18T02:33:30.173Z,9.20
2023-04-18T02:33:43.262Z,9.20
2023-04-18T02:33:55.165Z,9.20
2023-04-18T02:34:07.490Z,9.20
2023-04-18T02:34:19.355Z,9.20
2023-04-18T02:34:33.230Z,9.20
2023-04-18T02:34:45.055Z,9.20
2023-04-18T02:34:57.074Z,9.20
2023-04-18T02:35:10.461Z,9.20
2023-04-18T02:35:22.367Z,9.20
2023-04-18T02:35:34.257Z,9.20
2023-04-18T02:35:46.057Z,9.20
2023-04-18T02:35:57.776Z,9.20
2023-04-18T02:36:10.188Z,9.20
2023-04-18T02:36:22.040Z,9.20
2023-04-18T02:36:33.996Z,9.20
2023-04-18T02:36:46.080Z,9.20
2023-04-18T02:36:57.982Z,9.20
2023-04-18T02:37:09.961Z,9.20
2023-04-18T02:37:21.929Z,9.20
2023-04-18T02:37:33.836Z,9.20
2023-04-18T02:37:45.595Z,9.20
2023-04-18T02:37:57.520Z,9.20
2023-04-18T02:38:09.282Z,9.20
2023-04-18T02:38:21.069Z,9.20
2023-04-18T02:38:33.085Z,9.20
2023-04-18T02:38:45.549Z,9.20
2023-04-18T02:38:57.317Z,9.20
2023-04-18T02:39:09.117Z,9.20
2023-04-18T02:39:21.089Z,9.30
2023-04-18T02:39:32.841Z,9.20
2023-04-18T02:39:44.609Z,9.20
2023-04-18T02:39:57.001Z,9.20
2023-04-18T02:40:09.293Z,9.20
2023-04-18T02:40:21.056Z,9.20
2023-04-18T02:40:32.789Z,9.20
2023-04-18T02:40:44.554Z,9.20
2023-04-18T02:40:56.493Z,9.20
2023-04-18T02:41:08.399Z,9.20
2023-04-18T02:41:20.418Z,9.20
2023-04-18T02:41:32.248Z,9.20
2023-04-18T02:41:44.078Z,9.20